createdAt,value
2022-10-03T00:00:01.943Z,10.31
2022-10-03T00:02:39.473Z,10.11
2022-10-03T00:05:27.316Z,10.19
2022-10-03T00:08:01.765Z,10.15
2022-10-03T00:10:39.095Z,10.11
2022-10-03T00:13:22.432Z,10.12
2022-10-03T00:16:16.750Z,10.07
2022-10-03T00:18:48.368Z,10.15
2022-10-03T00:21:25.747Z,10.06
2022-10-03T00:23:57.333Z,10.02
2022-10-03T00:26:49.485Z,10.07
2022-10-03T00:29:36.318Z,9.93
2022-10-03T00:32:10.677Z,9.86
2022-10-03T00:34:42.320Z,9.81
2022-10-03T00:37:25.884Z,9.77
2022-10-03T00:40:15.728Z,9.79
2022-10-03T00:43:14.453Z,9.75
2022-10-03T00:46:13.437Z,9.65
2022-10-03T00:49:00.092Z,9.58
2022-10-03T00:51:48.052Z,9.55
2022-10-03T00:54:34.758Z,9.52
2022-10-03T00:57:31.912Z,9.40
2022-10-03T01:00:35.527Z,9.43
2022-10-03T01:03:25.312Z,9.42
2022-10-03T01:06:16.416Z,9.37
2022-10-03T01:09:06.346Z,9.43
2022-10-03T01:12:05.413Z,9.37
2022-10-03T01:14:55.249Z,9.38
2022-10-03T01:17:39.048Z,9.36
2022-10-03T01:20:19.804Z,9.35
2022-10-03T01:23:00.207Z,9.42
2022-10-03T01:25:48.689Z,9.37
2022-10-03T01:28:49.885Z,9.45
2022-10-03T01:31:22.029Z,9.41
2022-10-03T01:33:54.118Z,9.40
2022-10-03T01:36:33.454Z,9.36
2022-10-03T01:39:32.185Z,9.38
2022-10-03T01:42:19.969Z,9.37
2022-10-03T01:44:58.127Z,9.26
2022-10-03T01:47:49.197Z,9.23
2022-10-03T01:50:28.550Z,9.21
2022-10-03T01:53:15.002Z,9.26
2022-10-03T01:56:21.387Z,9.25
2022-10-03T01:59:07.770Z,9.20
2022-10-03T02:01:48.105Z,9.16
2022-10-03T02:04:25.523Z,9.16
2022-10-03T02:07:16.452Z,9.08
2022-10-03T02:09:48.062Z,9.13
2022-10-03T02:12:19.800Z,9.07
2022-10-03T02:14:54.466Z,9.05
2022-10-03T02:17:27.656Z,9.11
2022-10-03T02:20:10.680Z,9.13
2022-10-03T02:22:53.014Z,9.12
2022-10-03T02:25:41.305Z,9.11
2022-10-03T02:28:25.115Z,9.12
2022-10-03T02:31:22.504Z,9.13
2022-10-03T02:34:24.469Z,9.09
2022-10-03T02:36:58.807Z,9.19
2022-10-03T02:39:50.707Z,9.21
2022-10-03T02:42:44.837Z,9.28
2022-10-03T02:45:43.694Z,9.29
2022-10-03T02:48:42.849Z,9.34
2022-10-03T02:51:55.221Z,9.37
2022-10-03T02:54:41.522Z,9.33
2022-10-03T02:57:18.740Z,8.87
2022-10-03T03:00:05.598Z,8.69
2022-10-03T03:02:38.390Z,9.20
2022-10-03T03:05:34.267Z,9.33
2022-10-03T03:08:25.619Z,9.31
2022-10-03T03:11:09.154Z,9.38
2022-10-03T03:13:56.119Z,9.36
2022-10-03T03:16:51.069Z,9.41
2022-10-03T03:19:48.138Z,9.41
2022-10-03T03:22:39.278Z,9.50
2022-10-03T03:25:28.759Z,9.49
2022-10-03T03:28:20.059Z,9.59
2022-10-03T03:30:57.488Z,9.64
2022-10-03T03:33:34.870Z,9.71
2022-10-03T03:36:35.307Z,9.59
2022-10-03T03:39:15.920Z,9.69
2022-10-03T03:42:16.109Z,9.69
2022-10-03T03:45:04.359Z,9.77
2022-10-03T03:47:51.913Z,9.77
2022-10-03T03:50:39.975Z,9.70
2022-10-03T03:53:37.379Z,9.77
2022-10-03T03:56:24.164Z,9.82
2022-10-03T03:58:58.838Z,9.80
2022-10-03T04:01:49.221Z,9.77
2022-10-03T04:04:46.232Z,9.72
2022-10-03T04:07:32.178Z,9.73
2022-10-03T04:10:38.532Z,9.71
2022-10-03T04:13:26.550Z,9.73
2022-10-03T04:16:17.641Z,9.62
2022-10-03T04:19:01.847Z,9.58
2022-10-03T04:21:40.022Z,9.67
2022-10-03T04:24:23.546Z,9.74
2022-10-03T04:26:59.733Z,9.81
2022-10-03T04:29:56.666Z,9.81
2022-10-03T04:32:38.360Z,9.87
2022-10-03T04:35:29.428Z,9.91
2022-10-03T04:38:23.687Z,9.93
2022-10-03T04:41:17.369Z,9.98
2022-10-03T04:44:00.758Z,9.95
2022-10-03T04:46:43.202Z,10.08
2022-10-03T04:49:26.974Z,10.07
2022-10-03T04:52:07.762Z,9.98
2022-10-03T04:54:51.799Z,9.85
2022-10-03T04:57:40.147Z,9.96
2022-10-03T05:00:29.923Z,10.00
2022-10-03T05:03:21.726Z,10.06
2022-10-03T05:05:56.170Z,10.27
2022-10-03T05:08:39.589Z,10.30
2022-10-03T05:11:19.960Z,10.36
2022-10-03T05:13:54.433Z,10.39
2022-10-03T05:16:26.138Z,10.60
2022-10-03T05:19:03.763Z,10.82
2022-10-03T05:21:41.807Z,10.97
2022-10-03T05:24:29.054Z,11.02
2022-10-03T05:27:07.259Z,11.08
2022-10-03T05:29:45.112Z,11.19
2022-10-03T05:32:25.616Z,11.36
2022-10-03T05:35:03.269Z,11.41
2022-10-03T05:38:02.364Z,11.58
2022-10-03T05:40:34.312Z,11.62
2022-10-03T05:43:24.821Z,11.84
2022-10-03T05:46:03.011Z,12.04
2022-10-03T05:48:46.290Z,12.18
2022-10-03T05:51:28.577Z,12.14
2022-10-03T05:54:33.739Z,12.30
2022-10-03T05:57:15.484Z,12.52
2022-10-03T05:59:55.706Z,12.87
2022-10-03T06:02:36.289Z,12.75
2022-10-03T06:05:11.031Z,12.91
2022-10-03T06:07:49.610Z,13.02
2022-10-03T06:10:27.284Z,13.03
2022-10-03T06:13:13.809Z,13.03
2022-10-03T06:15:57.697Z,13.05
2022-10-03T06:18:50.241Z,12.76
2022-10-03T06:21:27.514Z,13.13
2022-10-03T06:24:08.009Z,13.44
2022-10-03T06:27:02.264Z,13.47
2022-10-03T06:29:54.527Z,13.02
2022-10-03T06:32:31.734Z,12.67
2022-10-03T06:35:20.022Z,13.09
2022-10-03T06:38:23.022Z,13.37
2022-10-03T06:41:03.258Z,13.34
2022-10-03T06:43:46.749Z,13.69
2022-10-03T06:46:47.005Z,13.95
2022-10-03T06:49:37.916Z,13.60
2022-10-03T06:52:38.107Z,13.44
2022-10-03T06:55:12.735Z,13.51
2022-10-03T06:58:11.391Z,13.41
2022-10-03T07:01:16.386Z,13.73
2022-10-03T07:04:07.594Z,13.91
2022-10-03T07:06:46.090Z,13.30
2022-10-03T07:09:37.474Z,12.63
2022-10-03T07:12:30.362Z,12.27
2022-10-03T07:15:14.179Z,12.04
2022-10-03T07:18:10.532Z,11.77
2022-10-03T07:20:56.161Z,11.59
2022-10-03T07:23:47.781Z,11.45
2022-10-03T07:26:25.172Z,11.38
2022-10-03T07:29:23.484Z,11.38
2022-10-03T07:31:58.226Z,11.33
2022-10-03T07:34:29.758Z,11.38
2022-10-03T07:37:25.239Z,11.36
2022-10-03T07:40:26.045Z,11.47
2022-10-03T07:43:17.282Z,11.44
2022-10-03T07:46:22.579Z,11.93
2022-10-03T07:49:06.230Z,12.40
2022-10-03T07:51:38.475Z,13.09
2022-10-03T07:54:22.109Z,13.29
2022-10-03T07:57:09.809Z,13.15
2022-10-03T07:59:53.956Z,13.21
2022-10-03T08:02:46.782Z,13.30
2022-10-03T08:05:43.870Z,13.32
2022-10-03T08:08:24.419Z,13.03
2022-10-03T08:11:02.061Z,13.08
2022-10-03T08:13:42.713Z,13.17
2022-10-03T08:16:32.440Z,13.24
2022-10-03T08:19:19.213Z,13.00
2022-10-03T08:21:59.759Z,12.46
2022-10-03T08:24:50.749Z,12.85
2022-10-03T08:27:51.648Z,12.79
2022-10-03T08:30:23.400Z,12.88
2022-10-03T08:33:10.048Z,13.19
2022-10-03T08:36:10.514Z,13.18
2022-10-03T08:38:47.863Z,12.59
2022-10-03T08:41:34.338Z,12.88
2022-10-03T08:44:14.714Z,13.05
2022-10-03T08:46:46.833Z,12.97
2022-10-03T08:49:36.606Z,12.91
2022-10-03T08:52:30.589Z,13.16
2022-10-03T08:55:35.586Z,13.34
2022-10-03T08:58:40.558Z,13.70
2022-10-03T09:01:21.470Z,13.90
2022-10-03T09:04:26.578Z,14.34
2022-10-03T09:07:23.193Z,14.10
2022-10-03T09:10:03.163Z,14.39
2022-10-03T09:13:06.720Z,14.31
2022-10-03T09:15:57.929Z,13.98
2022-10-03T09:18:45.916Z,14.25
2022-10-03T09:21:44.815Z,14.12
2022-10-03T09:24:48.471Z,14.04
2022-10-03T09:27:32.150Z,13.87
2022-10-03T09:30:25.180Z,13.77
2022-10-03T09:33:09.369Z,13.89
2022-10-03T09:35:59.341Z,14.17
2022-10-03T09:39:08.284Z,14.12
2022-10-03T09:42:04.048Z,14.23
2022-10-03T09:44:50.806Z,14.85
2022-10-03T09:47:46.274Z,15.13
2022-10-03T09:50:32.517Z,14.88
2022-10-03T09:53:23.873Z,14.82
2022-10-03T09:56:32.176Z,14.71
2022-10-03T09:59:20.848Z,14.38
2022-10-03T10:02:09.027Z,14.31
2022-10-03T10:05:09.615Z,14.65
2022-10-03T10:08:14.873Z,15.07
2022-10-03T10:11:15.299Z,15.21
2022-10-03T10:14:08.682Z,15.07
2022-10-03T10:16:47.889Z,15.59
2022-10-03T10:19:38.279Z,15.57
2022-10-03T10:22:36.275Z,15.56
2022-10-03T10:25:25.316Z,15.63
2022-10-03T10:28:14.675Z,15.83
2022-10-03T10:34:45.541Z,16.07
2022-10-03T10:38:00.004Z,16.05
2022-10-03T10:41:03.705Z,16.18
2022-10-03T10:47:13.385Z,15.71
2022-10-03T10:50:34.217Z,15.56
2022-10-03T10:53:38.150Z,15.58
2022-10-03T10:56:35.155Z,15.55
2022-10-03T10:59:39.949Z,15.37
2022-10-03T11:02:18.990Z,15.12
2022-10-03T11:05:29.998Z,15.21
2022-10-03T11:08:17.459Z,15.12
2022-10-03T11:11:06.478Z,15.02
2022-10-03T11:14:13.158Z,15.07
2022-10-03T11:17:09.087Z,14.98
2022-10-03T11:20:14.042Z,15.25
2022-10-03T11:23:18.665Z,15.35
2022-10-03T11:25:55.920Z,15.10
2022-10-03T11:28:44.109Z,15.12
2022-10-03T11:31:50.408Z,14.92
2022-10-03T11:34:43.375Z,15.20
2022-10-03T11:37:40.228Z,15.27
2022-10-03T11:40:28.367Z,14.99
2022-10-03T11:43:29.847Z,14.76
2022-10-03T11:46:04.303Z,14.85
2022-10-03T11:48:41.759Z,14.82
2022-10-03T11:51:16.169Z,15.23
2022-10-03T11:53:50.550Z,14.99
2022-10-03T11:56:32.124Z,15.25
2022-10-03T11:59:12.892Z,14.96
2022-10-03T12:02:05.576Z,15.02
2022-10-03T12:04:53.864Z,14.86
2022-10-03T12:08:07.052Z,14.88
2022-10-03T12:10:44.523Z,14.69
2022-10-03T12:13:18.766Z,14.65
2022-10-03T12:15:54.339Z,15.00
2022-10-03T12:18:44.567Z,14.98
2022-10-03T12:21:21.999Z,15.19
2022-10-03T12:24:27.373Z,15.28
2022-10-03T12:27:07.968Z,15.28
2022-10-03T12:29:40.157Z,15.23
2022-10-03T12:32:38.882Z,15.28
2022-10-03T12:35:10.447Z,14.90
2022-10-03T12:38:10.419Z,15.44
2022-10-03T12:40:49.243Z,15.50
2022-10-03T12:43:40.393Z,15.75
2022-10-03T12:46:15.331Z,15.86
2022-10-03T12:48:50.042Z,15.80
2022-10-03T12:51:21.688Z,15.57
2022-10-03T12:54:15.680Z,15.54
2022-10-03T12:56:47.293Z,15.50
2022-10-03T12:59:19.024Z,15.72
2022-10-03T13:02:02.663Z,15.89
2022-10-03T13:04:47.620Z,15.69
2022-10-03T13:07:37.275Z,15.51
2022-10-03T13:10:18.434Z,15.78
2022-10-03T13:12:53.580Z,15.38
2022-10-03T13:15:44.813Z,15.18
2022-10-03T13:18:31.370Z,15.17
2022-10-03T13:21:44.376Z,15.14
2022-10-03T13:24:07.194Z,15.17
2022-10-03T13:27:10.720Z,15.36
2022-10-03T13:29:53.349Z,15.41
2022-10-03T13:32:36.712Z,15.36
2022-10-03T13:35:37.939Z,15.45
2022-10-03T13:38:09.594Z,15.48
2022-10-03T13:40:45.899Z,15.43
2022-10-03T13:43:17.468Z,15.25
2022-10-03T13:45:49.288Z,15.37
2022-10-03T13:48:23.952Z,15.26
2022-10-03T13:51:23.278Z,15.35
2022-10-03T13:53:59.694Z,15.39
2022-10-03T13:56:46.235Z,15.21
2022-10-03T13:59:39.005Z,15.27
2022-10-03T14:02:41.075Z,15.09
2022-10-03T14:05:21.523Z,15.09
2022-10-03T14:08:10.921Z,15.15
2022-10-03T14:11:05.064Z,15.23
2022-10-03T14:13:52.654Z,15.22
2022-10-03T14:16:30.370Z,15.17
2022-10-03T14:19:10.639Z,15.15
2022-10-03T14:21:48.288Z,15.19
2022-10-03T14:24:26.555Z,14.99
2022-10-03T14:26:58.203Z,14.84
2022-10-03T14:29:32.595Z,14.86
2022-10-03T14:32:53.830Z,14.87
2022-10-03T14:35:19.209Z,14.89
2022-10-03T14:37:59.765Z,14.84
2022-10-03T14:40:32.893Z,14.79
2022-10-03T14:43:16.470Z,14.54
2022-10-03T14:45:51.778Z,14.55
2022-10-03T14:48:23.685Z,14.51
2022-10-03T14:50:57.019Z,14.47
2022-10-03T14:53:29.966Z,14.36
2022-10-03T14:56:13.128Z,14.29
2022-10-03T14:58:50.970Z,14.16
2022-10-03T15:01:28.849Z,14.15
2022-10-03T15:04:06.387Z,14.08
2022-10-03T15:06:49.383Z,13.99
2022-10-03T15:09:23.591Z,13.98
2022-10-03T15:11:55.221Z,13.91
2022-10-03T15:14:25.546Z,13.94
2022-10-03T15:16:57.158Z,13.88
2022-10-03T15:19:42.497Z,14.07
2022-10-03T15:22:36.531Z,14.06
2022-10-03T15:25:08.230Z,14.11
2022-10-03T15:27:38.749Z,13.91
2022-10-03T16:58:15.349Z,12.71
2022-10-03T17:01:31.673Z,12.67
2022-10-03T17:03:50.632Z,12.71
2022-10-03T17:06:25.795Z,12.72
2022-10-03T17:08:56.891Z,12.73
2022-10-03T17:11:28.801Z,12.76
2022-10-03T17:14:00.427Z,12.78
2022-10-03T17:16:45.518Z,12.73
2022-10-03T17:19:35.457Z,12.79
2022-10-03T17:22:29.669Z,12.78
2022-10-03T17:25:22.229Z,12.67
2022-10-03T17:27:53.576Z,12.57
2022-10-03T17:30:40.086Z,12.46
2022-10-03T17:33:26.574Z,12.40
2022-10-03T17:36:20.811Z,12.38
2022-10-03T17:39:01.131Z,12.31
2022-10-03T17:41:48.963Z,12.20
2022-10-03T17:44:31.144Z,12.14
2022-10-03T17:47:05.508Z,12.14
2022-10-03T17:50:02.728Z,12.02
2022-10-03T17:52:33.864Z,11.99
2022-10-03T17:55:05.898Z,11.89
2022-10-03T17:57:46.690Z,11.87
2022-10-03T18:00:27.270Z,11.83
2022-10-03T18:03:18.821Z,11.76
2022-10-03T18:05:57.855Z,11.76
2022-10-03T18:08:32.833Z,11.64
2022-10-03T18:11:03.388Z,11.63
2022-10-03T18:13:35.152Z,11.59
2022-10-03T18:16:24.831Z,11.48
2022-10-03T18:19:16.190Z,11.60
2022-10-03T18:21:56.682Z,11.58
2022-10-03T18:24:40.386Z,11.56
2022-10-03T18:27:12.995Z,11.49
2022-10-03T18:29:59.835Z,11.48
2022-10-03T18:32:34.643Z,11.51
2022-10-03T18:35:06.912Z,11.46
2022-10-03T18:37:48.804Z,11.51
2022-10-03T18:40:23.203Z,11.54
2022-10-03T18:42:54.428Z,11.62
2022-10-03T18:45:41.894Z,11.56
2022-10-03T18:48:19.323Z,11.54
2022-10-03T18:51:02.856Z,11.51
2022-10-03T18:53:37.089Z,11.53
2022-10-03T18:56:13.690Z,11.51
2022-10-03T19:02:19.713Z,11.49
2022-10-03T19:04:57.678Z,11.41
2022-10-03T19:07:34.344Z,11.39
2022-10-03T19:10:29.846Z,11.26
2022-10-03T19:19:56.565Z,11.16
2022-10-03T19:22:55.818Z,11.08
2022-10-03T19:26:31.288Z,11.05
2022-10-03T19:28:58.051Z,11.09
2022-10-03T19:32:03.958Z,10.91
2022-10-03T19:41:40.744Z,10.98
2022-10-03T19:44:26.966Z,11.03
2022-10-03T19:47:19.075Z,10.95
2022-10-03T19:49:53.031Z,10.94
2022-10-03T19:52:30.616Z,10.92
2022-10-03T19:55:22.345Z,10.95
2022-10-03T19:57:56.979Z,10.88
2022-10-03T20:00:31.274Z,10.82
2022-10-03T20:03:23.757Z,10.84
2022-10-03T20:06:04.276Z,10.74
2022-10-03T20:08:51.077Z,10.72
2022-10-03T20:11:46.501Z,10.72
2022-10-03T20:14:25.669Z,10.52
2022-10-03T20:16:58.941Z,10.48
2022-10-03T20:19:30.397Z,10.51
2022-10-03T20:22:01.390Z,10.56
2022-10-03T20:24:38.490Z,10.57
2022-10-03T20:27:29.628Z,10.44
2022-10-03T20:30:28.408Z,10.47
2022-10-03T20:32:59.132Z,10.34
2022-10-03T20:35:36.591Z,10.43
2022-10-03T20:38:37.229Z,10.45
2022-10-03T20:41:10.243Z,10.34
2022-10-03T20:43:47.732Z,10.22
2022-10-03T20:46:36.230Z,10.22
2022-10-03T20:49:30.807Z,10.18
2022-10-03T20:52:02.396Z,10.14
2022-10-03T20:54:41.788Z,10.14
2022-10-03T20:57:19.634Z,10.14
2022-10-03T21:00:00.168Z,10.06
2022-10-03T21:02:53.020Z,10.02
2022-10-03T21:05:36.585Z,9.98
2022-10-03T21:08:08.517Z,9.95
2022-10-03T21:10:43.088Z,9.89
2022-10-03T21:13:28.969Z,9.92
2022-10-03T21:15:59.992Z,9.86
2022-10-03T21:18:38.316Z,9.84
2022-10-03T21:21:15.036Z,9.83
2022-10-03T21:23:49.325Z,9.70
2022-10-03T21:26:21.006Z,9.67
2022-10-03T21:28:49.740Z,9.76
2022-10-03T21:31:27.412Z,9.82
2022-10-03T21:34:07.419Z,9.88
2022-10-03T21:36:41.842Z,9.85
2022-10-03T21:39:19.067Z,9.77
2022-10-03T21:41:50.730Z,9.73
2022-10-03T21:44:31.691Z,9.68
2022-10-03T21:47:26.126Z,9.68
2022-10-03T21:50:00.626Z,9.73
2022-10-03T21:52:48.687Z,9.78
2022-10-03T21:55:45.717Z,9.78
2022-10-03T21:58:20.655Z,9.74
2022-10-03T22:01:01.081Z,9.74
2022-10-03T22:03:45.553Z,9.72
2022-10-03T22:06:32.239Z,9.84
2022-10-03T22:09:06.923Z,9.91
2022-10-03T22:11:56.669Z,10.00
2022-10-03T22:14:50.206Z,10.00
2022-10-03T22:17:41.899Z,10.03
2022-10-03T22:20:25.076Z,10.04
2022-10-03T22:23:16.449Z,10.08
2022-10-03T22:26:19.511Z,10.14
2022-10-03T22:29:09.145Z,10.15
2022-10-03T22:31:52.836Z,10.18
2022-10-03T22:34:27.454Z,10.19
2022-10-03T22:36:58.507Z,10.24
2022-10-03T22:39:30.897Z,10.20
2022-10-03T22:42:05.224Z,10.18
2022-10-03T22:44:39.206Z,10.21
2022-10-03T22:47:13.543Z,10.23
2022-10-03T22:49:45.355Z,10.26
2022-10-03T22:52:19.802Z,10.30
2022-10-03T22:54:50.967Z,10.24
2022-10-03T22:57:20.291Z,10.25
2022-10-03T22:59:54.624Z,10.22
2022-10-03T23:02:28.801Z,10.23
2022-10-03T23:05:00.455Z,10.20
2022-10-03T23:07:37.805Z,10.26
2022-10-03T23:10:18.456Z,10.22
2022-10-03T23:12:52.684Z,10.24
2022-10-03T23:15:23.931Z,10.21
2022-10-03T23:18:14.800Z,10.20
2022-10-03T23:21:01.389Z,10.21
2022-10-03T23:23:59.672Z,10.23
2022-10-03T23:26:52.488Z,10.25
2022-10-03T23:29:22.147Z,10.28
2022-10-03T23:31:56.582Z,10.27
2022-10-03T23:34:40.289Z,10.23
2022-10-03T23:37:17.875Z,10.25
2022-10-03T23:39:58.261Z,10.27
2022-10-03T23:42:36.137Z,10.23
2022-10-03T23:45:19.266Z,10.20
2022-10-03T23:47:59.694Z,10.20
2022-10-03T23:50:37.420Z,10.15
2022-10-03T23:53:07.764Z,10.04
2022-10-03T23:55:39.676Z,9.98
2022-10-03T23:58:20.438Z,9.91
